Time;durP1;ratioP1;P1;durP2;ratioP2;P2;SDS_P1;SDS_P2;PMS_P1;PMS_P2;Temp;Humidity;BMP_temperature;BMP_pressure;BME280_temperature;BME280_humidity;BME280_pressure;Samples;Min_cycle;Max_cycle;Signal;HPM_P1;HPM_P2
2023/04/27 00:02:18;;;;;;;13.93;12.73;;;9.50;99.90;;;;;;4990287;28;20488;-72
2023/04/27 00:04:44;;;;;;;13.80;12.90;;;9.50;99.90;;;;;;4990416;28;21191;-73
2023/04/27 00:07:12;;;;;;;13.87;13.03;;;9.40;99.90;;;;;;4990535;28;20480;-73
2023/04/27 00:09:39;;;;;;;13.80;12.80;;;9.40;99.90;;;;;;4990557;28;20466;-73
2023/04/27 00:12:06;;;;;;;14.37;13.10;;;9.40;99.90;;;;;;4990505;28;20816;-72
2023/04/27 00:14:33;;;;;;;14.73;13.53;;;9.40;99.90;;;;;;4990222;28;20462;-73
2023/04/27 00:17:00;;;;;;;13.57;12.53;;;9.30;99.90;;;;;;4990371;28;20591;-72
2023/04/27 00:19:27;;;;;;;14.37;13.17;;;9.40;99.90;;;;;;4989965;28;20501;-72
2023/04/27 00:21:53;;;;;;;15.23;14.07;;;9.50;99.90;;;;;;4990241;28;20459;-73
2023/04/27 00:24:21;;;;;;;16.20;14.90;;;9.40;99.90;;;;;;4990261;28;20473;-73
2023/04/27 00:26:48;;;;;;;14.93;13.90;;;9.50;99.90;;;;;;4990042;28;20782;-73
2023/04/27 00:29:15;;;;;;;15.47;14.57;;;9.50;99.90;;;;;;4989923;28;20457;-73
2023/04/27 00:31:41;;;;;;;16.27;14.37;;;9.50;99.90;;;;;;4989916;28;20478;-72
2023/04/27 00:34:08;;;;;;;14.33;13.07;;;9.40;99.90;;;;;;4990026;28;20462;-72
2023/04/27 00:36:35;;;;;;;14.50;13.30;;;9.30;99.90;;;;;;4989892;28;20571;-72
2023/04/27 00:39:03;;;;;;;14.77;13.53;;;9.30;99.90;;;;;;4989501;28;21043;-73
2023/04/27 00:41:31;;;;;;;12.90;12.10;;;9.30;99.90;;;;;;4989585;28;21179;-74
2023/04/27 00:43:58;;;;;;;14.60;13.43;;;9.40;99.90;;;;;;4989525;28;20625;-73
2023/04/27 00:46:26;;;;;;;14.63;13.63;;;9.30;99.90;;;;;;4989632;28;20459;-72
2023/04/27 00:48:53;;;;;;;15.07;14.03;;;9.30;99.90;;;;;;4989883;28;20781;-73
2023/04/27 00:51:20;;;;;;;14.20;13.20;;;9.40;99.90;;;;;;4989678;28;20463;-73
2023/04/27 00:53:47;;;;;;;12.83;11.90;;;9.40;99.90;;;;;;4989629;28;20443;-73
2023/04/27 00:56:14;;;;;;;12.40;11.50;;;9.30;99.90;;;;;;4989411;28;20666;-72
2023/04/27 00:58:42;;;;;;;14.60;13.70;;;9.30;99.90;;;;;;4989347;28;20505;-73
2023/04/27 01:01:10;;;;;;;14.30;13.40;;;9.40;99.90;;;;;;4989782;28;20462;-72
2023/04/27 01:03:36;;;;;;;16.57;14.97;;;9.30;99.90;;;;;;4989602;28;20453;-72
2023/04/27 01:06:03;;;;;;;14.23;12.77;;;9.30;99.90;;;;;;4989576;28;20939;-72
2023/04/27 01:08:30;;;;;;;15.83;14.67;;;9.20;99.90;;;;;;4989374;28;20450;-72
2023/04/27 01:10:57;;;;;;;14.57;13.50;;;9.20;99.90;;;;;;4989191;28;20654;-72
2023/04/27 01:13:23;;;;;;;13.63;12.53;;;9.30;99.90;;;;;;4989301;28;20471;-72
2023/04/27 01:15:51;;;;;;;15.40;14.13;;;9.40;99.90;;;;;;4989348;28;20772;-72
2023/04/27 01:18:19;;;;;;;14.40;13.30;;;9.40;99.90;;;;;;4989262;28;20486;-73
2023/04/27 01:20:45;;;;;;;15.50;14.17;;;9.30;99.90;;;;;;4989090;28;20485;-73
2023/04/27 01:23:15;;;;;;;16.53;15.47;;;9.40;99.90;;;;;;4989090;28;20454;-73
2023/04/27 01:25:41;;;;;;;14.47;13.53;;;9.40;99.90;;;;;;4989067;28;20545;-72
2023/04/27 01:28:08;;;;;;;15.73;14.60;;;9.30;99.90;;;;;;4989303;28;20491;-72
2023/04/27 01:30:35;;;;;;;14.90;13.80;;;9.20;99.90;;;;;;4988978;28;20803;-72
2023/04/27 01:33:01;;;;;;;14.70;13.70;;;9.10;99.90;;;;;;4988941;28;20909;-73
2023/04/27 01:35:28;;;;;;;14.13;13.20;;;9.10;99.90;;;;;;4989007;28;20867;-74
2023/04/27 01:37:56;;;;;;;13.37;12.47;;;9.10;99.90;;;;;;4989074;28;20840;-73
2023/04/27 01:40:24;;;;;;;13.73;12.63;;;9.10;99.90;;;;;;4988883;28;20458;-73
2023/04/27 01:42:51;;;;;;;15.10;13.87;;;9.10;99.90;;;;;;4989114;28;20449;-72
2023/04/27 01:45:18;;;;;;;13.80;13.10;;;9.10;99.90;;;;;;4988848;28;20466;-72
2023/04/27 01:47:44;;;;;;;14.73;13.73;;;9.10;99.90;;;;;;4988875;28;20462;-74
2023/04/27 01:50:11;;;;;;;17.47;16.37;;;9.00;99.90;;;;;;4989197;28;20454;-74
2023/04/27 01:52:38;;;;;;;14.10;12.70;;;9.00;99.90;;;;;;4989301;28;20478;-74
2023/04/27 01:55:05;;;;;;;14.30;13.40;;;8.90;99.90;;;;;;4988780;28;20451;-74
2023/04/27 01:57:33;;;;;;;14.43;13.20;;;8.90;99.90;;;;;;4988643;28;20834;-73
2023/04/27 02:00:00;;;;;;;14.70;13.70;;;8.80;99.90;;;;;;4988755;28;20636;-73
2023/04/27 02:02:26;;;;;;;17.37;15.37;;;8.80;99.90;;;;;;4988980;28;20453;-73
2023/04/27 02:04:53;;;;;;;16.30;15.00;;;8.70;99.90;;;;;;4989284;28;20804;-73
2023/04/27 02:07:20;;;;;;;15.13;14.03;;;8.70;99.90;;;;;;4989119;28;20480;-73
2023/04/27 02:09:46;;;;;;;16.57;15.33;;;8.60;99.90;;;;;;4988658;28;20545;-73
2023/04/27 02:12:13;;;;;;;15.47;14.43;;;8.60;99.90;;;;;;4988492;28;20455;-73
2023/04/27 02:14:41;;;;;;;16.67;15.40;;;8.70;99.90;;;;;;4989063;28;20823;-73
2023/04/27 02:17:08;;;;;;;16.80;15.47;;;8.70;99.90;;;;;;4989001;28;20465;-73
2023/04/27 02:19:35;;;;;;;17.13;15.97;;;8.50;99.90;;;;;;4988533;28;21014;-73
2023/04/27 02:22:01;;;;;;;14.80;13.87;;;8.60;99.90;;;;;;4988473;28;21012;-73
2023/04/27 02:24:28;;;;;;;16.87;15.97;;;8.60;99.90;;;;;;4988370;28;20541;-73
2023/04/27 02:26:55;;;;;;;16.23;15.23;;;8.70;99.90;;;;;;4988417;28;20459;-73
2023/04/27 02:29:22;;;;;;;16.20;15.20;;;8.70;99.90;;;;;;4988574;28;20453;-73
2023/04/27 02:31:50;;;;;;;17.80;16.10;;;8.60;99.90;;;;;;4988389;28;20466;-73
2023/04/27 02:34:16;;;;;;;15.80;14.80;;;8.60;99.90;;;;;;4988244;28;20462;-73
2023/04/27 02:36:43;;;;;;;16.93;15.73;;;8.60;99.90;;;;;;4988141;28;20451;-73
2023/04/27 02:39:10;;;;;;;16.10;15.10;;;8.60;99.90;;;;;;4988449;28;20483;-73
2023/04/27 02:41:36;;;;;;;17.23;15.87;;;8.60;99.90;;;;;;4988425;28;20486;-73
2023/04/27 02:44:03;;;;;;;16.17;15.17;;;8.60;99.90;;;;;;4988127;28;20471;-73
2023/04/27 02:46:30;;;;;;;16.00;14.70;;;8.70;99.90;;;;;;4988081;28;20447;-73
2023/04/27 02:48:58;;;;;;;17.47;16.20;;;8.70;99.90;;;;;;4988088;28;20443;-71
2023/04/27 02:51:24;;;;;;;16.30;15.07;;;8.70;99.90;;;;;;4989765;28;20451;-74
2023/04/27 02:53:53;;;;;;;16.27;14.93;;;8.60;99.90;;;;;;4991635;28;20470;-71
2023/04/27 02:56:19;;;;;;;16.07;14.67;;;8.60;99.90;;;;;;4991530;28;20482;-72
2023/04/27 02:58:46;;;;;;;16.77;15.73;;;8.70;99.90;;;;;;4991332;28;20478;-72
2023/04/27 03:01:14;;;;;;;15.53;14.60;;;8.70;99.90;;;;;;4991444;28;20486;-72
2023/04/27 03:03:41;;;;;;;17.13;16.00;;;8.80;99.90;;;;;;4991780;28;20461;-72
2023/04/27 03:06:09;;;;;;;16.43;15.43;;;8.80;99.90;;;;;;4991843;28;20458;-72
2023/04/27 03:08:35;;;;;;;16.30;15.10;;;8.90;99.90;;;;;;4991688;28;20456;-72
2023/04/27 03:11:02;;;;;;;15.37;14.27;;;8.80;99.90;;;;;;4991152;28;20462;-73
2023/04/27 03:13:29;;;;;;;15.77;14.77;;;8.70;99.90;;;;;;4991358;28;20463;-71
2023/04/27 03:15:56;;;;;;;16.50;15.50;;;8.70;99.90;;;;;;4992298;28;20447;-72
2023/04/27 03:18:22;;;;;;;15.47;14.50;;;8.60;99.90;;;;;;4992908;28;20458;-72
2023/04/27 03:20:49;;;;;;;16.53;15.50;;;8.60;99.90;;;;;;4992594;28;20454;-71
2023/04/27 03:23:17;;;;;;;16.00;15.07;;;8.70;99.90;;;;;;4992564;28;20470;-73
2023/04/27 03:25:44;;;;;;;17.07;16.07;;;8.70;99.90;;;;;;4992432;28;20450;-73
2023/04/27 03:28:10;;;;;;;17.47;16.47;;;8.70;99.90;;;;;;4992601;28;20457;-72
2023/04/27 03:30:39;;;;;;;16.60;15.70;;;8.70;99.90;;;;;;4992718;28;20883;-72
2023/04/27 03:33:05;;;;;;;16.43;15.43;;;8.70;99.90;;;;;;4992538;28;20550;-73
2023/04/27 03:35:32;;;;;;;15.77;14.97;;;8.70;99.90;;;;;;4992360;28;20446;-72
2023/04/27 03:37:59;;;;;;;16.90;15.63;;;8.80;99.90;;;;;;4992127;28;20569;-73
2023/04/27 03:40:27;;;;;;;17.30;15.77;;;8.80;99.90;;;;;;4992380;28;20498;-73
2023/04/27 03:42:54;;;;;;;15.90;14.80;;;8.80;99.90;;;;;;4992408;28;20458;-73
2023/04/27 03:45:21;;;;;;;17.13;15.93;;;8.80;99.90;;;;;;4992239;28;20462;-72
2023/04/27 03:47:47;;;;;;;17.27;15.70;;;8.70;99.90;;;;;;4992186;28;20459;-72
2023/04/27 03:50:15;;;;;;;17.50;16.50;;;8.70;99.90;;;;;;4991893;28;20447;-73
2023/04/27 03:52:41;;;;;;;16.37;15.47;;;8.70;99.90;;;;;;4991937;28;20468;-73
2023/04/27 03:55:08;;;;;;;18.00;16.80;;;8.70;99.90;;;;;;4992281;28;20858;-73
2023/04/27 03:57:36;;;;;;;17.37;16.23;;;8.70;99.90;;;;;;4991729;28;20497;-73
2023/04/27 04:00:10;;;;;;;17.00;15.60;;;8.80;99.90;;;;;;4991885;28;20494;-73
2023/04/27 04:02:36;;;;;;;17.60;16.47;;;8.80;99.90;;;;;;4991741;28;20459;-73
2023/04/27 04:05:03;;;;;;;16.63;15.50;;;8.70;99.90;;;;;;4991767;28;20838;-73
2023/04/27 04:07:30;;;;;;;17.60;16.33;;;8.70;99.90;;;;;;4991796;28;20472;-72
2023/04/27 04:09:56;;;;;;;16.77;15.67;;;8.70;99.90;;;;;;4991622;28;20477;-72
2023/04/27 04:12:23;;;;;;;17.10;16.10;;;8.80;99.90;;;;;;4991950;28;20504;-73
2023/04/27 04:14:51;;;;;;;19.70;18.30;;;8.80;99.90;;;;;;4991823;28;20735;-74
2023/04/27 04:17:18;;;;;;;18.20;17.10;;;8.80;99.90;;;;;;4991699;28;20789;-73
2023/04/27 04:19:45;;;;;;;17.77;16.60;;;8.70;99.90;;;;;;4991489;28;20935;-72
2023/04/27 04:22:11;;;;;;;17.70;16.60;;;8.70;99.90;;;;;;4991688;28;20454;-73
2023/04/27 04:24:39;;;;;;;17.73;16.77;;;8.70;99.90;;;;;;4991569;28;20483;-73
2023/04/27 04:27:05;;;;;;;18.47;17.07;;;8.70;99.90;;;;;;4991426;28;20455;-73
2023/04/27 04:29:32;;;;;;;16.77;15.70;;;8.80;99.90;;;;;;4991321;28;20996;-73
2023/04/27 04:32:00;;;;;;;18.00;16.57;;;8.70;99.90;;;;;;4991347;28;20479;-73
2023/04/27 04:34:28;;;;;;;17.17;16.07;;;8.70;99.90;;;;;;4991287;28;20463;-74
2023/04/27 04:36:56;;;;;;;18.80;17.70;;;8.80;99.90;;;;;;4991530;28;20465;-73
2023/04/27 04:39:23;;;;;;;18.40;17.20;;;8.80;99.90;;;;;;4991242;28;20491;-73
2023/04/27 04:41:49;;;;;;;18.13;16.83;;;8.90;99.90;;;;;;4991096;28;20490;-73
2023/04/27 04:44:16;;;;;;;19.40;17.57;;;8.90;99.90;;;;;;4991106;28;20450;-73
2023/04/27 04:46:43;;;;;;;19.00;17.80;;;8.80;99.90;;;;;;4990995;28;20454;-73
2023/04/27 04:49:11;;;;;;;23.10;17.87;;;8.80;99.90;;;;;;4991152;28;20450;-72
2023/04/27 04:51:42;;;;;;;19.20;17.33;;;8.90;99.90;;;;;;4991288;28;20466;-72
2023/04/27 04:54:09;;;;;;;19.90;18.27;;;9.00;99.90;;;;;;4991239;28;20520;-72
2023/04/27 04:56:35;;;;;;;18.43;17.23;;;8.90;99.90;;;;;;4990983;28;20483;-73
2023/04/27 04:59:02;;;;;;;17.67;16.37;;;8.90;99.90;;;;;;4990633;28;20486;-71
2023/04/27 05:01:29;;;;;;;18.83;17.07;;;9.00;99.90;;;;;;4990699;28;20451;-73
2023/04/27 05:03:55;;;;;;;18.10;16.57;;;8.90;99.90;;;;;;4991090;28;20461;-74
2023/04/27 05:06:23;;;;;;;18.43;17.03;;;9.00;99.90;;;;;;4985760;28;20453;-74
2023/04/27 05:08:50;;;;;;;20.00;18.50;;;9.10;99.90;;;;;;4987618;28;20450;-73
2023/04/27 05:11:17;;;;;;;19.43;17.23;;;9.10;99.90;;;;;;4989579;28;20508;-72
2023/04/27 05:13:43;;;;;;;16.47;15.37;;;9.20;99.90;;;;;;4989616;28;20463;-73
2023/04/27 05:16:10;;;;;;;19.70;17.70;;;9.20;99.90;;;;;;4990618;28;20821;-73
2023/04/27 05:18:37;;;;;;;16.83;15.63;;;9.30;99.90;;;;;;4990217;28;20445;-72
2023/04/27 05:21:04;;;;;;;17.27;16.07;;;9.40;99.90;;;;;;4990256;28;20497;-72
2023/04/27 05:23:32;;;;;;;16.97;15.97;;;9.40;99.90;;;;;;4990294;28;20775;-72
2023/04/27 05:25:58;;;;;;;16.63;15.63;;;9.50;99.90;;;;;;4990156;28;20458;-74
2023/04/27 05:28:25;;;;;;;18.83;17.10;;;9.50;99.90;;;;;;4990391;28;20458;-74
2023/04/27 05:30:52;;;;;;;15.13;14.03;;;9.60;99.90;;;;;;4990353;28;20467;-75
2023/04/27 05:33:18;;;;;;;17.20;16.07;;;9.70;99.90;;;;;;4988373;28;20454;-75
2023/04/27 05:35:46;;;;;;;18.93;17.77;;;9.70;99.90;;;;;;4989650;28;20453;-74
2023/04/27 05:38:16;;;;;;;21.10;19.00;;;9.80;99.90;;;;;;4989791;28;20996;-73
2023/04/27 05:40:44;;;;;;;21.30;19.03;;;10.00;99.90;;;;;;4989540;28;20494;-72
2023/04/27 05:43:11;;;;;;;19.60;17.93;;;10.00;99.90;;;;;;4989818;28;20457;-73
2023/04/27 05:45:39;;;;;;;23.47;18.17;;;10.00;99.90;;;;;;4990036;28;20446;-72
2023/04/27 05:48:06;;;;;;;20.53;18.53;;;10.10;99.90;;;;;;4990039;28;20447;-73
2023/04/27 05:50:33;;;;;;;17.83;16.60;;;10.20;99.90;;;;;;4989499;28;20442;-73
2023/04/27 05:52:59;;;;;;;19.50;17.80;;;10.30;99.90;;;;;;4990124;28;20652;-72
2023/04/27 05:55:26;;;;;;;17.80;16.50;;;10.30;99.90;;;;;;4990184;28;20461;-74
2023/04/27 05:57:54;;;;;;;19.30;17.60;;;10.30;99.90;;;;;;4989864;28;20489;-73
2023/04/27 06:00:21;;;;;;;18.40;16.90;;;10.30;99.90;;;;;;4990142;28;20483;-73
2023/04/27 06:02:48;;;;;;;18.53;16.87;;;10.40;99.90;;;;;;4990184;28;20451;-73
2023/04/27 06:05:15;;;;;;;18.07;16.60;;;10.50;99.90;;;;;;4990115;28;20704;-73
2023/04/27 06:07:42;;;;;;;16.20;15.13;;;10.50;99.90;;;;;;4990182;28;20505;-73
2023/04/27 06:10:10;;;;;;;17.10;16.10;;;10.50;99.90;;;;;;4993202;28;20990;-73
2023/04/27 06:12:38;;;;;;;16.00;14.80;;;10.60;99.90;;;;;;5009735;28;20457;-72
2023/04/27 06:15:08;;;;;;;18.87;17.47;;;10.60;99.90;;;;;;5009393;28;20969;-73
2023/04/27 06:17:35;;;;;;;16.83;15.40;;;10.80;99.90;;;;;;5009668;28;20507;-74
2023/04/27 06:20:01;;;;;;;17.97;16.53;;;10.90;99.90;;;;;;5009441;28;20489;-72
2023/04/27 06:22:28;;;;;;;17.40;16.20;;;11.10;99.90;;;;;;5009764;28;20461;-72
2023/04/27 06:24:55;;;;;;;17.10;15.97;;;11.20;99.90;;;;;;5010498;28;20460;-73
2023/04/27 06:27:22;;;;;;;16.67;15.37;;;11.30;99.90;;;;;;5008383;28;20452;-72
2023/04/27 06:29:48;;;;;;;16.53;15.53;;;11.40;99.90;;;;;;5013132;28;20468;-74
2023/04/27 06:32:16;;;;;;;16.53;15.53;;;11.50;99.90;;;;;;5013223;28;20453;-73
2023/04/27 06:34:43;;;;;;;17.63;16.00;;;11.60;99.90;;;;;;5013134;28;20446;-73
2023/04/27 06:37:10;;;;;;;16.87;15.83;;;11.70;99.90;;;;;;5013396;28;20837;-72
2023/04/27 06:39:36;;;;;;;17.23;15.83;;;12.00;99.90;;;;;;5012969;28;20489;-72
2023/04/27 06:42:03;;;;;;;17.37;15.97;;;12.10;99.90;;;;;;5012776;28;20453;-73
2023/04/27 06:44:30;;;;;;;16.53;15.10;;;12.20;99.90;;;;;;5012877;28;20978;-74
2023/04/27 06:46:57;;;;;;;16.87;15.30;;;12.30;99.90;;;;;;5012169;28;20461;-73
2023/04/27 06:49:25;;;;;;;16.33;15.30;;;12.50;99.90;;;;;;4993731;28;20450;-71
2023/04/27 14:34:10;;;;;;;16.53;15.60;;;25.50;43.40;;;;;;4891707;29;20845;-74
2023/04/27 14:36:37;;;;;;;15.47;14.70;;;25.30;44.50;;;;;;4892852;29;20501;-76
2023/04/27 14:39:05;;;;;;;16.57;15.00;;;24.90;45.30;;;;;;4893534;29;20459;-74
2023/04/27 14:41:32;;;;;;;14.30;13.60;;;24.60;45.80;;;;;;4893181;29;20501;-75
2023/04/27 14:43:59;;;;;;;15.07;14.27;;;24.30;45.80;;;;;;4893704;29;20456;-74
2023/04/27 14:46:26;;;;;;;14.70;14.00;;;23.80;46.70;;;;;;4894932;29;20984;-75
2023/04/27 14:48:52;;;;;;;18.83;17.40;;;24.00;47.00;;;;;;4896744;29;20554;-74
2023/04/27 14:51:20;;;;;;;18.10;17.00;;;23.40;46.90;;;;;;4896923;29;20454;-75
2023/04/27 14:53:47;;;;;;;16.03;15.20;;;22.70;47.70;;;;;;4896997;29;20455;-76
2023/04/27 14:56:14;;;;;;;16.30;15.27;;;22.70;48.80;;;;;;4897489;29;20450;-75
2023/04/27 14:58:40;;;;;;;16.63;15.70;;;23.00;48.60;;;;;;4897260;29;20483;-76
2023/04/27 15:01:07;;;;;;;15.63;14.77;;;22.70;48.20;;;;;;4896042;29;20585;-75
2023/04/27 15:03:34;;;;;;;17.17;16.17;;;22.30;48.70;;;;;;4897540;29;20470;-73
2023/04/27 15:06:01;;;;;;;15.57;14.77;;;21.90;49.10;;;;;;4895280;29;20941;-76
2023/04/27 15:08:30;;;;;;;15.80;14.90;;;22.30;50.10;;;;;;4897002;29;20543;-74
2023/04/27 15:10:58;;;;;;;16.17;15.17;;;22.50;48.90;;;;;;4897266;29;20542;-76
2023/04/27 15:13:25;;;;;;;16.60;15.63;;;22.90;49.10;;;;;;4897120;29;20467;-75
2023/04/27 15:15:54;;;;;;;15.77;14.87;;;22.90;49.10;;;;;;4896964;29;20873;-75
2023/04/27 15:18:21;;;;;;;16.13;15.13;;;22.90;49.60;;;;;;4895553;29;20468;-76
2023/04/27 15:20:51;;;;;;;16.20;15.10;;;22.60;49.60;;;;;;4896547;29;20494;-76
2023/04/27 15:23:18;;;;;;;18.37;17.07;;;22.40;50.70;;;;;;4896779;29;20640;-75
2023/04/27 15:25:46;;;;;;;17.97;16.87;;;22.00;51.10;;;;;;4896784;29;20890;-75
2023/04/27 15:28:14;;;;;;;18.00;17.00;;;21.70;51.10;;;;;;4896484;29;20448;-75
2023/04/27 15:30:40;;;;;;;18.27;17.27;;;21.40;51.60;;;;;;4896476;29;20467;-76
2023/04/27 15:33:07;;;;;;;15.37;14.50;;;21.10;52.00;;;;;;4896265;29;20588;-75
2023/04/27 15:35:36;;;;;;;18.10;16.90;;;21.20;52.10;;;;;;4896485;29;20463;-76
2023/04/27 15:38:03;;;;;;;16.97;16.00;;;20.70;52.50;;;;;;4896445;29;20455;-75
2023/04/27 15:40:29;;;;;;;15.87;15.17;;;20.40;53.40;;;;;;4896592;29;20493;-75
2023/04/27 15:42:58;;;;;;;15.97;15.03;;;20.40;53.40;;;;;;4896314;29;20937;-76
2023/04/27 15:45:24;;;;;;;17.10;15.00;;;20.50;53.60;;;;;;4891503;29;20482;-76
2023/04/27 15:47:51;;;;;;;18.87;17.77;;;20.50;54.40;;;;;;4896330;29;20470;-76
2023/04/27 15:50:18;;;;;;;16.37;15.57;;;20.40;54.30;;;;;;4896718;29;20482;-76
2023/04/27 15:52:45;;;;;;;16.97;15.90;;;20.20;53.90;;;;;;4896692;29;20455;-76
2023/04/27 15:55:12;;;;;;;16.43;15.03;;;20.00;54.50;;;;;;4896606;29;20490;-76
2023/04/27 15:57:39;;;;;;;15.10;14.30;;;19.90;54.50;;;;;;4895984;29;20510;-75
2023/04/27 16:00:09;;;;;;;15.70;14.60;;;19.70;55.00;;;;;;4896289;29;20467;-77
2023/04/27 16:02:36;;;;;;;16.50;15.23;;;19.50;55.80;;;;;;4894450;29;20459;-74
2023/04/27 16:05:04;;;;;;;16.50;15.13;;;19.50;56.40;;;;;;4896501;29;20462;-76
2023/04/27 16:07:31;;;;;;;17.30;16.27;;;19.60;56.40;;;;;;4896505;29;21037;-75
2023/04/27 16:09:58;;;;;;;17.10;16.10;;;19.70;56.30;;;;;;4896089;29;20459;-77
2023/04/27 16:12:25;;;;;;;15.90;14.80;;;19.70;56.10;;;;;;4895936;29;20884;-76
2023/04/27 16:14:55;;;;;;;17.93;16.73;;;19.50;57.00;;;;;;4896217;29;20452;-77
2023/04/27 16:17:24;;;;;;;16.00;15.07;;;19.60;57.00;;;;;;4895603;29;20502;-75
2023/04/27 16:19:51;;;;;;;16.00;15.00;;;19.70;56.40;;;;;;4895381;29;20466;-76
2023/04/27 16:22:18;;;;;;;16.20;15.00;;;19.70;57.30;;;;;;4895439;29;20491;-75
2023/04/27 16:24:44;;;;;;;17.40;15.83;;;19.60;57.50;;;;;;4895724;29;20455;-76
2023/04/27 16:27:11;;;;;;;17.33;16.07;;;19.50;57.40;;;;;;4895318;29;20486;-77
2023/04/27 16:29:38;;;;;;;15.90;15.00;;;19.40;57.70;;;;;;4895730;29;20483;-75
2023/04/27 16:32:06;;;;;;;15.60;14.17;;;19.10;58.80;;;;;;4895404;29;20977;-76
2023/04/27 16:34:36;;;;;;;14.93;13.70;;;19.00;59.70;;;;;;4895797;29;20502;-75
2023/04/27 16:37:02;;;;;;;16.57;15.47;;;18.80;59.90;;;;;;4895554;29;20463;-76
2023/04/27 16:39:29;;;;;;;16.40;15.33;;;18.70;59.30;;;;;;4895874;29;20857;-76
2023/04/27 16:41:56;;;;;;;16.50;15.03;;;18.50;59.20;;;;;;4895798;29;20515;-77
2023/04/27 16:44:23;;;;;;;14.97;14.20;;;18.40;59.50;;;;;;4893458;29;20518;-74
2023/04/27 16:46:50;;;;;;;14.77;13.90;;;18.20;60.00;;;;;;4895369;29;20456;-76
2023/04/27 16:49:17;;;;;;;14.40;13.60;;;18.10;61.20;;;;;;4895477;29;20467;-75
2023/04/27 16:51:45;;;;;;;15.60;14.43;;;18.10;62.00;;;;;;4895570;29;20550;-76
2023/04/27 16:54:15;;;;;;;14.77;13.87;;;18.10;62.00;;;;;;4895491;29;21120;-77
2023/04/27 16:56:42;;;;;;;16.13;15.13;;;18.20;60.50;;;;;;4895306;29;20468;-75
2023/04/27 16:59:10;;;;;;;15.00;14.00;;;18.10;60.70;;;;;;4895269;29;20502;-77
2023/04/27 17:01:37;;;;;;;14.13;13.20;;;18.10;61.20;;;;;;4894995;29;20499;-75
2023/04/27 17:04:04;;;;;;;15.03;13.93;;;18.10;61.70;;;;;;4887839;29;20483;-77
2023/04/27 17:06:31;;;;;;;14.07;13.27;;;18.10;61.60;;;;;;4894786;29;20946;-76
2023/04/27 17:09:00;;;;;;;14.93;14.20;;;18.10;62.20;;;;;;4894379;29;20462;-75
2023/04/27 17:11:26;;;;;;;15.93;15.00;;;18.10;62.50;;;;;;4894347;29;20502;-76
2023/04/27 17:13:53;;;;;;;13.70;13.03;;;18.00;62.50;;;;;;4894568;29;20459;-76
2023/04/27 17:16:20;;;;;;;13.90;13.10;;;17.90;61.60;;;;;;4894414;29;20958;-75
2023/04/27 17:18:47;;;;;;;13.83;13.03;;;18.00;62.60;;;;;;4894599;29;20493;-77
2023/04/27 17:21:15;;;;;;;14.90;13.70;;;17.80;63.40;;;;;;4894741;29;20499;-75
2023/04/27 17:23:45;;;;;;;17.43;16.10;;;17.80;63.80;;;;;;4894603;29;20459;-77
2023/04/27 17:26:14;;;;;;;16.47;15.47;;;17.90;62.80;;;;;;4894409;29;20549;-77
2023/04/27 17:28:41;;;;;;;13.93;13.10;;;17.90;63.00;;;;;;4894679;29;20467;-77
2023/04/27 17:31:08;;;;;;;14.80;13.77;;;17.90;62.80;;;;;;4894874;29;20473;-76
2023/04/27 17:33:34;;;;;;;14.20;13.30;;;17.70;63.70;;;;;;4894581;29;20491;-75
2023/04/27 17:36:01;;;;;;;15.20;14.30;;;17.70;64.70;;;;;;4892860;29;20463;-76
2023/04/27 17:38:28;;;;;;;14.17;13.07;;;17.60;65.30;;;;;;4894496;29;20506;-77
2023/04/27 17:40:54;;;;;;;14.17;13.13;;;17.40;66.60;;;;;;4894285;29;20491;-76
2023/04/27 17:43:22;;;;;;;13.60;12.80;;;17.50;67.10;;;;;;4894566;29;20462;-75
2023/04/27 17:45:49;;;;;;;15.73;14.50;;;17.40;68.20;;;;;;4894361;29;20459;-77
2023/04/27 17:48:16;;;;;;;14.50;13.43;;;17.30;67.30;;;;;;4894592;29;20467;-76
2023/04/27 17:51:04;;;;;;;13.17;12.47;;;17.30;69.50;;;;;;4894463;29;20455;-75
2023/04/27 17:53:31;;;;;;;12.77;11.87;;;17.30;69.60;;;;;;4892304;29;20982;-75
2023/04/27 17:55:57;;;;;;;13.17;12.47;;;17.20;70.70;;;;;;4893060;29;20470;-76
2023/04/27 17:58:25;;;;;;;13.07;12.37;;;17.20;72.20;;;;;;4894482;29;20467;-75
2023/04/27 18:00:52;;;;;;;13.93;12.90;;;17.20;74.70;;;;;;4894315;29;20789;-75
2023/04/27 18:03:19;;;;;;;12.60;11.90;;;17.10;73.70;;;;;;4894091;29;20455;-75
2023/04/27 18:05:46;;;;;;;13.70;12.90;;;17.10;75.00;;;;;;4892092;29;20455;-76
2023/04/27 18:08:12;;;;;;;15.20;14.20;;;16.90;75.50;;;;;;4893698;29;20838;-75
2023/04/27 18:10:39;;;;;;;13.30;12.50;;;16.90;76.20;;;;;;4893862;29;20447;-76
2023/04/27 18:13:06;;;;;;;13.87;12.87;;;16.80;76.90;;;;;;4893603;29;21017;-76
2023/04/27 18:15:34;;;;;;;13.13;12.43;;;16.70;77.10;;;;;;4891906;29;20459;-76
2023/04/27 18:18:01;;;;;;;14.93;13.60;;;16.70;77.90;;;;;;4894178;29;20459;-77
2023/04/27 18:20:28;;;;;;;13.53;12.73;;;16.70;77.90;;;;;;4893836;29;20511;-75
2023/04/27 18:22:55;;;;;;;12.40;11.70;;;16.70;78.70;;;;;;4896933;29;20495;-76
2023/04/27 18:25:22;;;;;;;11.73;11.13;;;16.60;80.00;;;;;;4896855;29;20550;-76
2023/04/27 18:27:54;;;;;;;12.90;12.23;;;16.50;81.10;;;;;;4896998;29;20482;-75
2023/04/27 18:30:21;;;;;;;14.80;13.53;;;16.40;82.70;;;;;;4896658;29;20487;-76
2023/04/27 18:32:49;;;;;;;13.17;11.80;;;16.30;84.30;;;;;;4897061;29;20479;-75
2023/04/27 18:35:15;;;;;;;11.83;11.03;;;16.30;84.30;;;;;;4897076;29;20475;-77
2023/04/27 18:37:46;;;;;;;12.87;12.17;;;16.30;84.40;;;;;;4896959;29;20454;-77
2023/04/27 18:40:14;;;;;;;12.40;11.70;;;16.10;85.40;;;;;;4896799;29;20451;-75
2023/04/27 18:42:40;;;;;;;13.47;12.53;;;16.10;86.20;;;;;;4896993;29;20490;-76
2023/04/27 18:45:08;;;;;;;12.80;12.10;;;15.80;87.80;;;;;;4896959;29;20482;-77
2023/04/27 18:47:35;;;;;;;13.37;12.67;;;15.80;88.90;;;;;;4896901;29;20455;-77
2023/04/27 18:50:03;;;;;;;13.80;13.00;;;15.70;90.40;;;;;;4897092;29;20443;-75
2023/04/27 18:52:30;;;;;;;12.77;11.87;;;15.50;91.50;;;;;;4896952;29;20510;-77
2023/04/27 18:54:57;;;;;;;11.67;11.07;;;15.40;92.50;;;;;;4896916;29;20453;-76
2023/04/27 18:57:25;;;;;;;12.60;11.90;;;15.30;92.90;;;;;;4896771;29;21077;-76
2023/04/27 18:59:52;;;;;;;13.43;12.63;;;15.10;93.90;;;;;;4896875;29;20728;-78
2023/04/27 19:02:18;;;;;;;12.97;12.20;;;14.90;94.30;;;;;;4896414;29;20561;-77
2023/04/27 19:04:45;;;;;;;14.37;13.33;;;14.80;94.80;;;;;;4896219;29;20484;-75
2023/04/27 19:07:21;;;;;;;13.90;12.93;;;14.70;95.70;;;;;;4893996;29;20436;-74
2023/04/27 19:09:48;;;;;;;14.17;12.87;;;14.60;96.50;;;;;;4894951;29;20514;-76
2023/04/27 19:12:14;;;;;;;13.43;12.47;;;14.50;97.30;;;;;;4896863;29;20454;-77
2023/04/27 19:14:41;;;;;;;13.17;11.90;;;14.40;97.20;;;;;;4896382;29;20455;-76
2023/04/27 19:17:10;;;;;;;13.20;12.40;;;14.50;98.90;;;;;;4896499;29;20599;-79
2023/04/27 19:19:38;;;;;;;14.17;13.07;;;14.40;98.80;;;;;;4896706;29;20458;-76
2023/04/27 19:22:05;;;;;;;13.97;12.87;;;14.30;99.70;;;;;;4896445;29;20490;-75
2023/04/27 19:24:35;;;;;;;13.60;12.60;;;14.10;99.90;;;;;;4896116;29;20459;-76
2023/04/27 19:27:02;;;;;;;13.57;12.50;;;14.10;99.90;;;;;;4896802;29;20459;-75
2023/04/27 19:29:28;;;;;;;12.80;12.00;;;14.00;99.90;;;;;;4896305;29;20451;-74
2023/04/27 19:31:55;;;;;;;13.30;12.50;;;13.90;99.90;;;;;;4894203;29;20542;-75
2023/04/27 19:34:22;;;;;;;13.87;12.97;;;13.80;99.90;;;;;;4896007;29;20464;-75
2023/04/27 19:36:49;;;;;;;14.13;12.93;;;13.70;99.90;;;;;;4896580;29;20456;-75
2023/04/27 19:39:19;;;;;;;13.70;12.67;;;13.60;99.90;;;;;;4896830;29;20459;-75
2023/04/27 19:41:47;;;;;;;13.13;12.23;;;13.50;99.90;;;;;;4896383;29;20498;-74
2023/04/27 19:44:13;;;;;;;14.03;12.87;;;13.50;99.90;;;;;;4896572;29;20456;-74
2023/04/27 19:46:40;;;;;;;13.50;12.70;;;13.40;99.90;;;;;;4894374;29;20467;-75
2023/04/27 19:49:06;;;;;;;14.23;13.03;;;13.40;99.90;;;;;;4896370;29;20491;-75
2023/04/27 19:51:33;;;;;;;13.90;12.87;;;13.40;99.90;;;;;;4894668;29;20801;-77
2023/04/27 19:54:00;;;;;;;14.60;13.60;;;13.40;99.90;;;;;;4896625;29;20459;-76
2023/04/27 19:56:27;;;;;;;14.70;13.20;;;13.50;99.90;;;;;;4895793;29;20459;-76
2023/04/27 19:58:55;;;;;;;15.83;14.73;;;13.50;99.90;;;;;;4896216;29;20459;-76
2023/04/27 20:01:21;;;;;;;13.73;12.93;;;13.50;99.90;;;;;;4895983;29;20507;-76
2023/04/27 20:03:48;;;;;;;14.13;13.13;;;13.60;99.90;;;;;;4895980;29;20463;-76
2023/04/27 20:06:15;;;;;;;15.70;14.80;;;13.60;99.90;;;;;;4896728;29;20868;-75
2023/04/27 20:08:42;;;;;;;12.83;12.03;;;13.70;99.90;;;;;;4896030;29;20842;-77
2023/04/27 20:11:12;;;;;;;13.93;12.00;;;13.50;99.90;;;;;;4891327;29;20451;-74
2023/04/27 20:13:39;;;;;;;14.20;12.80;;;13.40;99.90;;;;;;4894855;29;20507;-73